Time;durP1;ratioP1;P1;durP2;ratioP2;P2;SDS_P1;SDS_P2;PMS_P1;PMS_P2;Temp;Humidity;BMP_temperature;BMP_pressure;BME280_temperature;BME280_humidity;BME280_pressure;Samples;Min_cycle;Max_cycle;Signal;HPM_P1;HPM_P2
2022/07/11 00:02:20;;;;;;;0.73;0.45;;;17.00;63.50;;;;;;5095831;28;20097;-76
2022/07/11 00:04:46;;;;;;;0.50;0.50;;;17.00;63.30;;;;;;5095657;28;20113;-76
2022/07/11 00:07:13;;;;;;;0.50;0.50;;;17.00;63.70;;;;;;5096004;28;20028;-76
2022/07/11 00:09:38;;;;;;;0.52;0.50;;;17.00;63.90;;;;;;5095640;28;20036;-74
2022/07/11 00:12:05;;;;;;;5.20;1.27;;;17.00;63.70;;;;;;5096060;28;20028;-76
2022/07/11 00:14:31;;;;;;;0.85;0.55;;;17.00;63.60;;;;;;5095919;28;20109;-76
2022/07/11 00:16:57;;;;;;;1.95;0.50;;;16.90;63.20;;;;;;5095371;28;20453;-77
2022/07/11 00:19:23;;;;;;;0.50;0.50;;;17.00;63.20;;;;;;5095589;28;20047;-75
2022/07/11 00:21:50;;;;;;;0.40;0.40;;;17.00;63.10;;;;;;5095180;28;20024;-76
2022/07/11 00:24:19;;;;;;;0.80;0.60;;;17.00;63.10;;;;;;5095582;28;20031;-76
2022/07/11 00:26:46;;;;;;;1.48;0.40;;;17.00;63.40;;;;;;5095367;28;20022;-76
2022/07/11 00:29:12;;;;;;;0.77;0.50;;;17.00;63.10;;;;;;5095341;28;20047;-76
2022/07/11 00:31:37;;;;;;;0.45;0.45;;;17.00;63.20;;;;;;5095446;28;20028;-76
2022/07/11 00:34:03;;;;;;;1.25;0.50;;;17.00;63.10;;;;;;5095355;28;20039;-76
2022/07/11 00:36:29;;;;;;;0.65;0.43;;;17.00;63.20;;;;;;5095425;28;20093;-76
2022/07/11 00:38:55;;;;;;;2.42;0.70;;;17.00;63.10;;;;;;5095011;28;20024;-76
2022/07/11 00:41:21;;;;;;;0.50;0.50;;;17.00;63.30;;;;;;5095092;28;20539;-77
2022/07/11 00:43:57;;;;;;;0.45;0.45;;;17.00;63.20;;;;;;5094727;28;20024;-76
2022/07/11 00:46:24;;;;;;;0.60;0.50;;;17.00;63.30;;;;;;5095217;28;20040;-76
2022/07/11 00:48:50;;;;;;;0.40;0.40;;;17.00;63.20;;;;;;5093755;28;20066;-76
2022/07/11 00:51:20;;;;;;;0.75;0.45;;;17.00;63.10;;;;;;5094927;28;20036;-78
2022/07/11 00:53:53;;;;;;;0.50;0.43;;;17.00;63.20;;;;;;5094604;28;20024;-76
2022/07/11 00:56:27;;;;;;;0.95;0.43;;;17.00;63.40;;;;;;5094952;28;20024;-76
2022/07/11 00:58:56;;;;;;;0.38;0.38;;;16.90;63.30;;;;;;5094065;28;20026;-76
2022/07/11 01:01:22;;;;;;;0.57;0.47;;;16.90;63.50;;;;;;5094992;28;20028;-77
2022/07/11 01:03:48;;;;;;;0.98;0.45;;;16.90;63.60;;;;;;5084755;28;20118;-76
2022/07/11 01:06:14;;;;;;;0.30;0.30;;;16.90;63.30;;;;;;5074378;28;20381;-76
2022/07/11 01:08:40;;;;;;;0.68;0.50;;;16.90;63.40;;;;;;5092389;28;20032;-76
2022/07/11 01:11:18;;;;;;;0.30;0.30;;;16.90;63.20;;;;;;5094200;28;20066;-76
2022/07/11 01:13:45;;;;;;;0.80;0.40;;;16.90;63.30;;;;;;5092592;28;20115;-76
2022/07/11 01:16:14;;;;;;;0.55;0.55;;;16.90;63.50;;;;;;5094373;28;20495;-77
2022/07/11 01:18:45;;;;;;;1.25;0.80;;;16.90;63.80;;;;;;5094535;28;20020;-77
2022/07/11 01:21:30;;;;;;;0.67;0.50;;;16.90;63.60;;;;;;5094755;28;20038;-76
2022/07/11 01:24:00;;;;;;;0.85;0.40;;;16.90;63.70;;;;;;5094203;28;20249;-76
2022/07/11 01:26:27;;;;;;;0.50;0.50;;;16.90;63.70;;;;;;5094326;28;20094;-76
2022/07/11 01:28:55;;;;;;;0.65;0.55;;;16.90;63.70;;;;;;5094135;28;20131;-76
2022/07/11 01:31:20;;;;;;;2.08;0.80;;;16.90;63.80;;;;;;5094481;28;20032;-76
2022/07/11 01:33:46;;;;;;;0.55;0.43;;;16.90;63.80;;;;;;5094103;28;20024;-76
2022/07/11 01:36:12;;;;;;;0.90;0.35;;;16.90;63.90;;;;;;5094449;28;20063;-76
2022/07/11 01:38:39;;;;;;;1.83;0.50;;;16.80;63.90;;;;;;5094313;28;20485;-76
2022/07/11 01:41:05;;;;;;;0.30;0.30;;;16.80;64.00;;;;;;5093885;28;20039;-76
2022/07/11 01:43:31;;;;;;;2.17;0.50;;;16.80;64.30;;;;;;5094266;28;20032;-76
2022/07/11 01:45:57;;;;;;;0.50;0.50;;;16.80;64.60;;;;;;5093493;28;20388;-76
2022/07/11 01:48:22;;;;;;;0.50;0.50;;;16.80;64.50;;;;;;5094177;28;20353;-76
2022/07/11 01:50:49;;;;;;;0.63;0.50;;;16.80;64.50;;;;;;5093704;28;20043;-76
2022/07/11 01:53:15;;;;;;;0.93;0.82;;;16.80;64.60;;;;;;5094103;28;20032;-76
2022/07/11 01:55:41;;;;;;;0.82;0.57;;;16.80;64.50;;;;;;5093991;28;20069;-76
2022/07/11 01:58:07;;;;;;;0.40;0.35;;;16.70;64.60;;;;;;5092062;28;20024;-76
2022/07/11 02:00:32;;;;;;;3.92;0.52;;;16.70;64.90;;;;;;5093513;28;20112;-76
2022/07/11 02:02:58;;;;;;;0.77;0.52;;;16.60;65.10;;;;;;5093535;28;20034;-76
2022/07/11 02:05:23;;;;;;;0.68;0.68;;;16.60;65.20;;;;;;5093972;28;20032;-76
2022/07/11 02:08:34;;;;;;;1.00;0.50;;;16.60;65.40;;;;;;5093126;28;20031;-76
2022/07/11 02:10:35;;;;;;;0.88;0.63;;;16.60;65.40;;;;;;5089684;28;20079;-76
2022/07/11 02:13:01;;;;;;;1.33;0.90;;;16.60;65.50;;;;;;5091984;28;20060;-76
2022/07/11 02:15:28;;;;;;;2.17;0.50;;;16.60;65.60;;;;;;5093859;28;20032;-76
2022/07/11 02:17:53;;;;;;;0.30;0.30;;;16.60;65.70;;;;;;5093291;28;20096;-76
2022/07/11 02:20:20;;;;;;;1.95;0.40;;;16.60;66.00;;;;;;5093395;28;20457;-76
2022/07/11 02:22:46;;;;;;;0.50;0.50;;;16.50;66.70;;;;;;5093511;28;20032;-76
2022/07/11 02:25:12;;;;;;;0.40;0.38;;;16.50;66.50;;;;;;5093061;28;20111;-76
2022/07/11 02:27:37;;;;;;;0.40;0.40;;;16.50;66.50;;;;;;5093104;28;20056;-76
2022/07/11 02:30:04;;;;;;;0.73;0.60;;;16.50;66.70;;;;;;5093178;28;20063;-76
2022/07/11 02:32:29;;;;;;;3.03;0.52;;;16.50;66.90;;;;;;5093472;28;20042;-76
2022/07/11 02:34:55;;;;;;;1.42;0.70;;;16.50;66.90;;;;;;5092980;28;20028;-76
2022/07/11 02:37:20;;;;;;;1.02;0.57;;;16.50;66.90;;;;;;5092999;28;20487;-76
2022/07/11 02:39:47;;;;;;;1.15;0.73;;;16.50;67.20;;;;;;5093012;28;20028;-76
2022/07/11 02:42:13;;;;;;;1.83;0.60;;;16.50;67.50;;;;;;5089782;28;20035;-76
2022/07/11 02:44:39;;;;;;;1.42;1.02;;;16.50;67.70;;;;;;5092811;28;20387;-76
2022/07/11 02:47:05;;;;;;;0.35;0.35;;;16.50;68.30;;;;;;5092461;28;20028;-76
2022/07/11 02:49:32;;;;;;;1.02;0.57;;;16.50;68.80;;;;;;5093087;28;20027;-76
2022/07/11 02:51:58;;;;;;;0.50;0.50;;;16.40;71.10;;;;;;5092456;28;20081;-76
2022/07/11 02:54:24;;;;;;;0.85;0.60;;;16.40;72.60;;;;;;5092752;28;20075;-76
2022/07/11 02:56:49;;;;;;;1.25;0.70;;;16.40;73.20;;;;;;5092358;28;20051;-76
2022/07/11 02:59:15;;;;;;;0.50;0.50;;;16.30;74.10;;;;;;5092779;28;20095;-76
2022/07/11 03:01:41;;;;;;;1.98;0.40;;;16.30;76.40;;;;;;5092596;28;20028;-76
2022/07/11 03:04:08;;;;;;;0.50;0.50;;;16.20;78.40;;;;;;5092310;28;20457;-75
2022/07/11 03:06:33;;;;;;;0.70;0.70;;;16.20;80.10;;;;;;5092895;28;20024;-76
2022/07/11 03:08:59;;;;;;;0.70;0.60;;;16.10;82.50;;;;;;5091891;28;20024;-75
2022/07/11 03:11:24;;;;;;;0.50;0.50;;;16.00;83.50;;;;;;5095222;28;20076;-75
2022/07/11 03:13:50;;;;;;;0.50;0.50;;;16.00;84.70;;;;;;5096961;28;20035;-75
2022/07/11 03:16:16;;;;;;;1.20;0.80;;;16.00;85.80;;;;;;5096448;28;20063;-76
2022/07/11 03:18:41;;;;;;;0.50;0.40;;;16.00;86.00;;;;;;5096867;28;20031;-75
2022/07/11 03:21:08;;;;;;;2.15;0.68;;;15.90;88.30;;;;;;5096470;28;20080;-76
2022/07/11 03:23:34;;;;;;;0.50;0.50;;;15.90;88.30;;;;;;5090814;28;20020;-75
2022/07/11 03:26:00;;;;;;;0.95;0.60;;;15.90;88.40;;;;;;5075184;28;20494;-75
2022/07/11 03:28:26;;;;;;;0.50;0.50;;;15.90;88.70;;;;;;5075686;28;20123;-75
2022/07/11 03:30:51;;;;;;;1.88;0.70;;;15.90;89.00;;;;;;5084672;28;20072;-75
2022/07/11 03:33:17;;;;;;;0.68;0.50;;;15.90;89.00;;;;;;5096495;28;20054;-76
2022/07/11 03:35:43;;;;;;;1.45;0.70;;;15.90;89.00;;;;;;5095976;28;20078;-75
2022/07/11 03:38:10;;;;;;;2.17;0.60;;;15.90;88.40;;;;;;5095914;28;20034;-75
2022/07/11 03:40:35;;;;;;;1.25;0.70;;;15.90;87.90;;;;;;5096389;28;20491;-75
2022/07/11 03:43:01;;;;;;;0.70;0.57;;;15.90;88.00;;;;;;5096459;28;20036;-75
2022/07/11 03:45:27;;;;;;;2.13;0.70;;;16.00;88.10;;;;;;5096691;28;20031;-74
2022/07/11 03:47:53;;;;;;;3.28;0.60;;;16.00;88.00;;;;;;5096517;28;20461;-75
2022/07/11 03:50:19;;;;;;;2.67;0.65;;;16.00;87.10;;;;;;5096446;28;20097;-75
2022/07/11 03:52:45;;;;;;;0.40;0.40;;;16.00;86.30;;;;;;5096149;28;20073;-75
2022/07/11 03:55:10;;;;;;;1.08;0.60;;;16.00;85.70;;;;;;5095786;28;20028;-75
2022/07/11 03:57:36;;;;;;;1.08;0.70;;;16.00;85.10;;;;;;5096046;28;20385;-75
2022/07/11 04:00:05;;;;;;;0.80;0.68;;;16.00;85.00;;;;;;5095860;28;20020;-75
2022/07/11 04:02:31;;;;;;;1.05;0.50;;;16.00;84.60;;;;;;5096501;28;20036;-75
2022/07/11 04:04:57;;;;;;;0.60;0.45;;;16.00;85.30;;;;;;5095816;28;20027;-75
2022/07/11 04:07:23;;;;;;;1.13;0.45;;;15.90;85.50;;;;;;5096035;28;20020;-75
2022/07/11 04:09:48;;;;;;;1.42;0.65;;;15.90;85.90;;;;;;5096145;28;20032;-75
2022/07/11 04:12:14;;;;;;;0.85;0.60;;;15.90;85.80;;;;;;5095533;28;20115;-75
2022/07/11 04:14:39;;;;;;;0.65;0.40;;;15.90;86.30;;;;;;5095927;28;20354;-75
2022/07/11 04:17:05;;;;;;;2.00;0.90;;;15.80;86.50;;;;;;5095254;28;20104;-74
2022/07/11 04:19:31;;;;;;;0.47;0.47;;;15.80;87.40;;;;;;5095806;28;20032;-75
2022/07/11 04:21:56;;;;;;;0.40;0.40;;;15.80;87.50;;;;;;5095909;28;20032;-74
2022/07/11 04:24:22;;;;;;;0.47;0.47;;;15.80;87.60;;;;;;5095773;28;20465;-75
2022/07/11 04:26:47;;;;;;;1.98;0.68;;;15.80;87.30;;;;;;5095762;28;20380;-76
2022/07/11 04:29:13;;;;;;;3.05;0.60;;;15.70;86.70;;;;;;5095327;28;20059;-76
2022/07/11 04:31:39;;;;;;;0.77;0.77;;;15.80;86.70;;;;;;5095594;28;20035;-76
2022/07/11 04:34:04;;;;;;;0.50;0.50;;;15.80;86.70;;;;;;5095564;28;20532;-76
2022/07/11 04:36:30;;;;;;;1.17;0.50;;;15.80;86.70;;;;;;5095528;28;20028;-77
2022/07/11 04:38:56;;;;;;;0.52;0.52;;;15.80;86.60;;;;;;5095569;28;20024;-76
2022/07/11 04:41:21;;;;;;;0.98;0.50;;;15.80;87.00;;;;;;5094850;28;20024;-76
2022/07/11 04:43:47;;;;;;;0.75;0.50;;;15.80;86.80;;;;;;5094307;28;20059;-76
2022/07/11 04:46:14;;;;;;;0.40;0.40;;;15.80;86.80;;;;;;5093813;28;20035;-75
2022/07/11 04:48:39;;;;;;;1.60;0.60;;;15.80;87.00;;;;;;5095215;28;20048;-74
2022/07/11 04:51:06;;;;;;;0.82;0.60;;;15.80;87.10;;;;;;5094704;28;20070;-74
2022/07/11 04:53:32;;;;;;;0.55;0.50;;;15.80;87.10;;;;;;5095355;28;20031;-74
2022/07/11 04:55:58;;;;;;;4.43;0.70;;;15.80;87.20;;;;;;5095033;28;20469;-74
2022/07/11 04:58:24;;;;;;;0.70;0.60;;;15.90;87.20;;;;;;5094481;28;20028;-76
2022/07/11 05:00:51;;;;;;;3.25;0.63;;;15.90;87.00;;;;;;5094702;28;20078;-76
2022/07/11 05:03:16;;;;;;;0.43;0.43;;;16.00;86.30;;;;;;5094571;28;20028;-76
2022/07/11 05:05:42;;;;;;;1.33;0.73;;;16.10;85.60;;;;;;5094732;28;20026;-76
2022/07/11 05:08:08;;;;;;;0.70;0.68;;;16.10;86.00;;;;;;5094412;28;20023;-76
2022/07/11 05:10:36;;;;;;;0.95;0.68;;;16.10;85.10;;;;;;5094637;28;20107;-76
2022/07/11 05:13:05;;;;;;;0.75;0.60;;;16.20;84.40;;;;;;5094374;28;20036;-73
2022/07/11 05:15:31;;;;;;;1.25;0.60;;;16.20;84.00;;;;;;5094710;28;20039;-75
2022/07/11 05:17:56;;;;;;;1.65;0.85;;;16.30;83.70;;;;;;5094647;28;20031;-75
2022/07/11 05:20:22;;;;;;;0.63;0.60;;;16.40;83.00;;;;;;5091262;28;20020;-75
2022/07/11 05:22:48;;;;;;;0.70;0.50;;;16.50;82.60;;;;;;5094041;28;20103;-76
2022/07/11 05:25:13;;;;;;;0.52;0.52;;;16.60;81.60;;;;;;5093890;28;20032;-76
2022/07/11 05:27:39;;;;;;;1.08;0.70;;;16.70;81.20;;;;;;5093863;28;20032;-75
2022/07/11 05:30:05;;;;;;;0.68;0.60;;;16.90;80.20;;;;;;5093783;28;20036;-75
2022/07/11 05:32:31;;;;;;;0.60;0.60;;;17.00;78.90;;;;;;5093588;28;20114;-75
2022/07/11 05:34:58;;;;;;;0.55;0.43;;;17.10;78.10;;;;;;5093288;28;20099;-75
2022/07/11 05:37:24;;;;;;;0.85;0.50;;;17.20;77.80;;;;;;5093490;28;20040;-76
2022/07/11 05:39:50;;;;;;;0.55;0.38;;;17.30;76.30;;;;;;5093820;28;20108;-75
2022/07/11 05:42:16;;;;;;;0.82;0.60;;;17.40;75.40;;;;;;5093543;28;20039;-74
2022/07/11 05:44:42;;;;;;;0.47;0.47;;;17.40;75.20;;;;;;5093699;28;20388;-75
2022/07/11 05:47:08;;;;;;;0.57;0.52;;;17.50;74.20;;;;;;5093446;28;20024;-75
2022/07/11 05:49:33;;;;;;;0.77;0.60;;;17.60;73.50;;;;;;5093958;28;20107;-76
2022/07/11 05:51:59;;;;;;;0.50;0.50;;;17.70;73.30;;;;;;5093054;28;20020;-76
2022/07/11 05:54:25;;;;;;;1.00;0.50;;;17.90;72.40;;;;;;5093025;28;20031;-76
2022/07/11 05:56:51;;;;;;;0.80;0.60;;;18.00;71.50;;;;;;5093618;28;20051;-76
2022/07/11 05:59:16;;;;;;;1.58;0.47;;;18.30;70.60;;;;;;5093652;28;20056;-77
2022/07/11 06:01:42;;;;;;;0.73;0.52;;;18.80;69.40;;;;;;5096140;28;20028;-76
2022/07/11 06:04:08;;;;;;;0.98;0.40;;;19.30;67.50;;;;;;5092735;28;20035;-76
2022/07/11 06:06:33;;;;;;;0.68;0.55;;;19.70;64.80;;;;;;5093390;28;20032;-75
2022/07/11 06:08:59;;;;;;;0.57;0.57;;;19.50;63.60;;;;;;5093496;28;20030;-76
2022/07/11 06:11:25;;;;;;;0.70;0.50;;;19.30;63.50;;;;;;5093008;28;20028;-76
2022/07/11 06:13:51;;;;;;;0.82;0.77;;;19.10;64.50;;;;;;5093478;28;20028;-76
2022/07/11 06:16:17;;;;;;;1.48;0.57;;;18.90;65.10;;;;;;5093060;28;20028;-76
2022/07/11 06:18:43;;;;;;;1.55;0.60;;;18.70;65.70;;;;;;5092940;28;20028;-76
2022/07/11 06:21:09;;;;;;;1.00;0.60;;;18.60;66.30;;;;;;5093036;28;20046;-75
2022/07/11 06:23:35;;;;;;;1.55;0.60;;;18.50;67.00;;;;;;5093275;28;20039;-75
2022/07/11 06:26:01;;;;;;;1.05;0.88;;;18.30;67.20;;;;;;5092867;28;20016;-76
2022/07/11 06:28:27;;;;;;;1.15;0.65;;;18.30;68.00;;;;;;5092964;28;20044;-76
2022/07/11 06:30:53;;;;;;;0.40;0.40;;;18.20;68.30;;;;;;5092968;28;20437;-75
2022/07/11 06:33:19;;;;;;;0.52;0.52;;;18.10;68.50;;;;;;5092401;28;20452;-75
2022/07/11 06:35:46;;;;;;;1.25;0.95;;;18.00;68.70;;;;;;5093081;28;20028;-75
2022/07/11 06:38:13;;;;;;;1.73;0.82;;;18.00;69.30;;;;;;5092346;28;20455;-75
2022/07/11 06:40:38;;;;;;;0.40;0.40;;;17.90;69.70;;;;;;5092597;28;20031;-76
2022/07/11 06:43:05;;;;;;;1.70;0.75;;;17.90;70.00;;;;;;5092647;28;20429;-74
2022/07/11 06:45:31;;;;;;;2.28;0.50;;;17.90;69.90;;;;;;5091620;28;20115;-76
2022/07/11 06:47:56;;;;;;;0.60;0.40;;;17.90;70.50;;;;;;5092912;28;20158;-76
2022/07/11 06:50:22;;;;;;;1.38;1.27;;;17.80;71.00;;;;;;5092352;28;20024;-76
2022/07/11 06:52:48;;;;;;;0.60;0.50;;;17.80;71.50;;;;;;5092338;28;20028;-76
2022/07/11 06:55:14;;;;;;;1.35;0.60;;;17.80;71.40;;;;;;5092315;28;20047;-76
2022/07/11 06:57:39;;;;;;;0.55;0.55;;;17.80;71.40;;;;;;5092245;28;20034;-76
2022/07/11 07:00:07;;;;;;;1.00;0.90;;;18.30;71.40;;;;;;5092731;28;20107;-77
2022/07/11 07:02:33;;;;;;;0.77;0.47;;;18.50;68.90;;;;;;5092347;28;20055;-76
2022/07/11 07:04:59;;;;;;;1.98;0.68;;;18.80;68.30;;;;;;5092182;28;20048;-77
2022/07/11 07:07:28;;;;;;;2.08;0.70;;;19.40;67.10;;;;;;5092231;28;20024;-76
2022/07/11 07:09:54;;;;;;;1.65;0.60;;;20.00;65.30;;;;;;5092688;28;20391;-76
2022/07/11 07:12:21;;;;;;;0.82;0.65;;;20.20;62.80;;;;;;5091924;28;20488;-75
2022/07/11 07:14:47;;;;;;;5.40;1.27;;;20.20;62.50;;;;;;5091190;28;20028;-75
2022/07/11 07:17:13;;;;;;;2.55;0.65;;;20.20;62.30;;;;;;5092256;28;20027;-75
2022/07/11 07:19:38;;;;;;;0.75;0.55;;;20.00;62.30;;;;;;5092718;28;20372;-75
2022/07/11 07:22:05;;;;;;;1.52;0.50;;;19.90;62.90;;;;;;5090414;28;20088;-75
2022/07/11 07:24:31;;;;;;;1.85;0.50;;;19.90;63.40;;;;;;5090844;28;20027;-75
2022/07/11 07:26:57;;;;;;;1.27;0.75;;;19.90;62.90;;;;;;5091931;28;20103;-75
2022/07/11 07:29:23;;;;;;;0.65;0.55;;;19.90;63.40;;;;;;5091569;28;20170;-75
2022/07/11 07:31:49;;;;;;;0.50;0.50;;;19.80;63.00;;;;;;5091841;28;20113;-75
2022/07/11 07:34:14;;;;;;;1.83;0.70;;;19.80;63.60;;;;;;5091890;28;20453;-76
2022/07/11 07:36:40;;;;;;;2.53;0.93;;;19.80;63.40;;;;;;5091996;28;20024;-76
2022/07/11 07:39:06;;;;;;;4.13;1.08;;;19.90;63.50;;;;;;5092538;28;20012;-75
2022/07/11 07:41:31;;;;;;;2.03;0.75;;;20.10;63.00;;;;;;5096943;28;20035;-76
2022/07/11 07:43:57;;;;;;;1.30;0.80;;;20.10;63.00;;;;;;5102285;28;20028;-76
2022/07/11 07:46:23;;;;;;;0.75;0.57;;;20.10;62.50;;;;;;5100812;28;20376;-76
2022/07/11 07:48:48;;;;;;;0.88;0.57;;;20.50;63.00;;;;;;5106785;28;20032;-76
2022/07/11 07:51:14;;;;;;;0.95;0.50;;;21.10;60.60;;;;;;5093874;28;20438;-75
2022/07/11 07:53:39;;;;;;;1.17;0.73;;;21.50;59.00;;;;;;5091979;28;20035;-75
2022/07/11 07:56:06;;;;;;;2.45;0.75;;;21.40;58.60;;;;;;5091705;28;20056;-75
2022/07/11 07:58:32;;;;;;;1.00;0.70;;;21.10;58.00;;;;;;5095129;28;20077;-76
2022/07/11 08:03:42;;;;;;;1.80;0.90;;;20.70;59.30;;;;;;5093503;28;20070;-76
2022/07/11 08:06:08;;;;;;;1.83;0.93;;;20.60;59.40;;;;;;5095720;28;20028;-76
2022/07/11 08:08:33;;;;;;;1.67;0.75;;;20.30;60.80;;;;;;5094965;28;20028;-77
2022/07/11 08:11:01;;;;;;;0.90;0.73;;;20.10;61.10;;;;;;5095615;28;20656;-76
2022/07/11 08:13:28;;;;;;;1.35;0.80;;;20.00;61.70;;;;;;5102804;28;20058;-77
2022/07/11 08:15:54;;;;;;;1.73;0.70;;;19.80;62.00;;;;;;5095402;28;20034;-77
2022/07/11 08:18:19;;;;;;;0.80;0.60;;;19.60;62.70;;;;;;5095158;28;20032;-76
2022/07/11 08:20:45;;;;;;;4.80;0.80;;;19.40;63.20;;;;;;5095348;28;20020;-77
2022/07/11 08:23:12;;;;;;;2.08;0.77;;;19.30;64.10;;;;;;5095135;28;20023;-75
2022/07/11 08:25:38;;;;;;;1.98;0.70;;;19.20;64.50;;;;;;5095303;28;20035;-74
2022/07/11 08:28:04;;;;;;;1.65;0.77;;;19.40;65.00;;;;;;5094598;28;20044;-74
2022/07/11 08:30:29;;;;;;;2.30;0.77;;;20.00;65.50;;;;;;5095252;28;20020;-75
2022/07/11 08:32:56;;;;;;;1.25;0.70;;;20.60;61.90;;;;;;5094835;28;20020;-75
2022/07/11 08:35:22;;;;;;;0.75;0.68;;;20.40;61.70;;;;;;5094815;28;20099;-75
2022/07/11 08:37:47;;;;;;;0.60;0.60;;;20.20;62.10;;;;;;5094612;28;20119;-74
2022/07/11 08:40:13;;;;;;;2.00;0.70;;;20.20;63.90;;;;;;5100545;28;20036;-74
2022/07/11 08:42:45;;;;;;;0.85;0.60;;;20.10;62.00;;;;;;5104061;28;20127;-75
2022/07/11 08:45:12;;;;;;;0.82;0.43;;;20.00;62.60;;;;;;5097039;28;20103;-76
2022/07/11 08:47:39;;;;;;;3.80;0.60;;;19.90;61.60;;;;;;5093960;28;20024;-75
2022/07/11 08:50:05;;;;;;;0.40;0.40;;;19.70;59.00;;;;;;5094334;28;20043;-78
2022/07/11 08:52:32;;;;;;;1.20;0.50;;;19.50;59.10;;;;;;5094086;28;20475;-71
2022/07/11 08:54:58;;;;;;;3.78;1.17;;;19.20;61.50;;;;;;5095531;28;20087;-74
2022/07/11 08:57:24;;;;;;;3.17;1.00;;;19.10;62.70;;;;;;5093446;28;20099;-75
2022/07/11 08:59:54;;;;;;;0.98;0.63;;;19.00;61.30;;;;;;5093483;28;20498;-76
2022/07/11 09:02:20;;;;;;;0.50;0.50;;;18.90;60.80;;;;;;5092962;28;20487;-76
2022/07/11 09:04:46;;;;;;;1.15;0.52;;;18.80;61.00;;;;;;5093831;28;20093;-74
2022/07/11 09:07:12;;;;;;;1.05;0.60;;;18.80;61.80;;;;;;5093834;28;20422;-74
2022/07/11 09:09:38;;;;;;;1.85;0.93;;;18.80;62.10;;;;;;5091171;28;20028;-75
2022/07/11 09:12:14;;;;;;;0.90;0.70;;;18.80;62.20;;;;;;5094416;28;20028;-75
2022/07/11 09:14:45;;;;;;;0.77;0.77;;;18.70;62.80;;;;;;5093738;28;20469;-76
2022/07/11 09:17:10;;;;;;;0.85;0.75;;;18.70;62.70;;;;;;5093943;28;20024;-75
2022/07/11 09:19:39;;;;;;;2.80;0.75;;;18.70;63.00;;;;;;5093884;28;20077;-75
2022/07/11 09:27:54;;;;;;;1.10;0.50;;;19.00;64.20;;;;;;5093685;28;20093;-75
2022/07/11 09:30:28;;;;;;;4.35;0.90;;;19.20;62.70;;;;;;5093846;28;20399;-75
2022/07/11 09:32:55;;;;;;;1.15;0.93;;;19.50;62.80;;;;;;5094314;28;20072;-75
2022/07/11 09:35:23;;;;;;;3.28;1.08;;;19.70;61.80;;;;;;5093469;28;20127;-75
2022/07/11 09:37:49;;;;;;;1.38;0.77;;;20.00;61.10;;;;;;5094224;28;20081;-75
2022/07/11 09:40:17;;;;;;;5.32;1.13;;;20.20;59.90;;;;;;5093763;28;20024;-76
2022/07/11 09:42:50;;;;;;;1.35;0.82;;;20.40;58.20;;;;;;5092103;28;20031;-75
2022/07/11 09:45:17;;;;;;;1.02;0.88;;;20.50;56.90;;;;;;5093701;28;20020;-76
2022/07/11 09:47:54;;;;;;;2.70;1.15;;;20.70;56.90;;;;;;5092253;28;20453;-76
2022/07/11 09:50:26;;;;;;;2.78;0.80;;;20.90;56.10;;;;;;5092775;28;20016;-76
2022/07/11 09:53:12;;;;;;;2.65;0.95;;;21.00;55.30;;;;;;5093471;28;20051;-77
2022/07/11 09:55:46;;;;;;;1.85;0.85;;;21.10;54.80;;;;;;5092816;28;20036;-75
2022/07/11 09:58:14;;;;;;;2.05;0.95;;;21.10;55.50;;;;;;5093287;28;20028;-76
2022/07/11 10:00:41;;;;;;;1.45;0.80;;;21.10;54.50;;;;;;5092374;28;20036;-75
2022/07/11 10:03:07;;;;;;;1.30;0.70;;;21.20;54.00;;;;;;5093075;28;20032;-76
2022/07/11 10:05:34;;;;;;;3.20;0.98;;;21.20;50.80;;;;;;5092528;28;20039;-76
2022/07/11 10:08:01;;;;;;;2.22;0.82;;;21.30;50.70;;;;;;5092443;28;20039;-76
2022/07/11 10:10:28;;;;;;;3.83;1.55;;;21.40;49.50;;;;;;5092396;28;20017;-76
2022/07/11 10:12:54;;;;;;;0.65;0.60;;;21.40;50.40;;;;;;5092712;28;20031;-76
2022/07/11 10:15:24;;;;;;;1.85;0.80;;;21.50;50.30;;;;;;5092139;28;20035;-75
2022/07/11 10:17:58;;;;;;;1.45;0.88;;;21.50;49.10;;;;;;5092415;28;20158;-75
2022/07/11 10:20:35;;;;;;;1.02;0.80;;;21.40;48.50;;;;;;5092452;28;20081;-77
2022/07/11 10:23:06;;;;;;;0.73;0.70;;;21.40;47.50;;;;;;5092608;28;20107;-76
2022/07/11 10:25:51;;;;;;;0.82;0.65;;;21.50;48.10;;;;;;5091923;28;20027;-76
2022/07/11 10:28:46;;;;;;;2.35;0.80;;;21.60;47.40;;;;;;5091974;28;20417;-76
2022/07/11 10:31:27;;;;;;;0.65;0.65;;;21.70;47.00;;;;;;5092020;28;20040;-76
2022/07/11 10:34:04;;;;;;;2.45;0.80;;;21.80;45.60;;;;;;5092302;28;20024;-76
2022/07/11 10:36:32;;;;;;;1.20;0.80;;;21.80;46.20;;;;;;5091779;28;20463;-75
2022/07/11 10:39:24;;;;;;;0.95;0.65;;;21.90;46.50;;;;;;5092392;28;20055;-77
2022/07/11 10:41:51;;;;;;;1.45;0.90;;;21.90;46.30;;;;;;5092704;28;20032;-76
2022/07/11 10:44:17;;;;;;;1.65;0.70;;;21.90;46.20;;;;;;5092818;28;20103;-77
2022/07/11 10:46:43;;;;;;;0.60;0.60;;;21.90;46.30;;;;;;5091993;28;20024;-77
2022/07/11 10:49:21;;;;;;;1.17;0.65;;;21.90;45.50;;;;;;5092455;28;20028;-76
2022/07/11 10:51:51;;;;;;;2.85;0.82;;;22.00;45.50;;;;;;5092663;28;20126;-78
2022/07/11 10:54:34;;;;;;;1.13;0.73;;;22.10;46.00;;;;;;5092498;28;20024;-77
2022/07/11 10:57:28;;;;;;;1.65;1.02;;;22.10;46.50;;;;;;5092570;28;20077;-76
2022/07/11 11:00:05;;;;;;;1.40;0.80;;;22.10;46.40;;;;;;5092625;28;20036;-76
2022/07/11 11:02:32;;;;;;;0.88;0.52;;;22.10;44.90;;;;;;5091568;28;20032;-75
2022/07/11 11:04:59;;;;;;;2.13;0.60;;;22.20;46.20;;;;;;5091842;28;20102;-76
2022/07/11 11:07:27;;;;;;;0.93;0.65;;;22.20;45.90;;;;;;5091977;28;20110;-77
2022/07/11 11:09:53;;;;;;;2.38;0.90;;;22.20;45.00;;;;;;5092680;28;20031;-76
2022/07/11 11:12:20;;;;;;;0.50;0.50;;;22.20;45.60;;;;;;5092496;28;20025;-76
2022/07/11 11:14:45;;;;;;;0.93;0.60;;;22.30;45.90;;;;;;5091764;28;20468;-77
2022/07/11 11:17:34;;;;;;;1.40;0.50;;;22.20;46.10;;;;;;5092151;28;20067;-77
2022/07/11 11:19:59;;;;;;;1.15;0.77;;;22.30;46.60;;;;;;5091298;28;20107;-76
2022/07/11 11:22:25;;;;;;;2.20;0.90;;;22.30;46.30;;;;;;5091500;28;20111;-76
2022/07/11 11:24:53;;;;;;;0.98;0.70;;;22.30;47.00;;;;;;5092241;28;20032;-77
2022/07/11 11:27:24;;;;;;;0.70;0.60;;;22.40;47.80;;;;;;5092525;28;20107;-76
2022/07/11 11:29:51;;;;;;;0.73;0.50;;;22.50;44.80;;;;;;5092162;28;20044;-76
2022/07/11 11:32:17;;;;;;;3.65;0.90;;;22.50;45.00;;;;;;5093551;28;20525;-77
2022/07/11 11:34:43;;;;;;;3.28;0.90;;;22.50;45.20;;;;;;5095952;28;20036;-77
2022/07/11 11:37:09;;;;;;;1.08;0.70;;;22.40;45.20;;;;;;5096359;28;20413;-77
2022/07/11 11:39:39;;;;;;;0.55;0.55;;;22.20;45.10;;;;;;5095321;28;20078;-76
2022/07/11 11:42:16;;;;;;;3.47;0.70;;;22.10;45.50;;;;;;5096305;28;20034;-76
2022/07/11 11:45:01;;;;;;;0.85;0.82;;;22.00;46.10;;;;;;5096023;28;20319;-76
2022/07/11 11:47:31;;;;;;;1.25;1.08;;;21.90;46.20;;;;;;5095625;28;20448;-77
2022/07/11 11:49:57;;;;;;;0.65;0.55;;;21.80;46.50;;;;;;5095679;28;20020;-77
2022/07/11 11:52:24;;;;;;;2.78;0.70;;;21.80;46.30;;;;;;5094154;28;20051;-77
2022/07/11 11:54:58;;;;;;;0.63;0.60;;;21.80;46.80;;;;;;5098098;28;20063;-76
2022/07/11 11:57:26;;;;;;;1.58;0.80;;;21.70;46.90;;;;;;5086651;28;20024;-73
2022/07/11 11:59:52;;;;;;;0.47;0.43;;;21.70;49.00;;;;;;5093641;28;20036;-77
2022/07/11 12:02:22;;;;;;;0.73;0.52;;;21.70;50.60;;;;;;5095158;28;20086;-75
2022/07/11 12:04:47;;;;;;;0.60;0.60;;;21.60;51.70;;;;;;5094604;28;20065;-77
2022/07/11 12:07:13;;;;;;;1.40;0.98;;;21.60;52.80;;;;;;5094535;28;20139;-77
2022/07/11 12:09:50;;;;;;;1.55;0.80;;;21.70;53.30;;;;;;5093560;28;20032;-77
2022/07/11 12:15:08;;;;;;;1.42;0.70;;;21.80;52.50;;;;;;5093190;28;20085;-76
2022/07/11 12:17:35;;;;;;;0.77;0.55;;;21.90;50.80;;;;;;5073520;28;20460;-76
2022/07/11 12:20:01;;;;;;;0.60;0.60;;;22.00;51.10;;;;;;5094467;28;20101;-76
2022/07/11 12:22:27;;;;;;;0.40;0.40;;;22.00;50.80;;;;;;5094219;28;20426;-71
2022/07/11 12:24:54;;;;;;;0.82;0.70;;;22.00;50.50;;;;;;5093744;28;20035;-79
2022/07/11 12:27:24;;;;;;;0.85;0.63;;;21.90;48.80;;;;;;5094921;28;20115;-74
2022/07/11 12:29:51;;;;;;;1.75;0.68;;;21.90;49.20;;;;;;5094359;28;20048;-72
2022/07/11 12:32:18;;;;;;;0.90;0.60;;;21.80;50.20;;;;;;5093963;28;20036;-73
2022/07/11 12:34:46;;;;;;;3.22;0.70;;;21.80;50.60;;;;;;5093587;28;20051;-71
2022/07/11 12:37:13;;;;;;;0.63;0.63;;;21.80;49.10;;;;;;5093829;28;20025;-74
2022/07/11 12:39:53;;;;;;;0.60;0.50;;;21.70;48.90;;;;;;5090601;28;20038;-73
2022/07/11 12:42:32;;;;;;;2.55;0.82;;;21.80;48.90;;;;;;5091403;28;20076;-73
2022/07/11 12:45:08;;;;;;;4.55;0.85;;;21.80;48.20;;;;;;5093546;28;20028;-74
2022/07/11 12:47:39;;;;;;;4.63;0.90;;;21.80;47.00;;;;;;5094764;28;20514;-74
2022/07/11 12:50:26;;;;;;;0.55;0.55;;;21.80;46.60;;;;;;5095038;28;20060;-74
2022/07/11 12:52:57;;;;;;;1.15;0.60;;;21.80;45.90;;;;;;5094907;28;20109;-74
2022/07/11 12:55:27;;;;;;;0.83;0.63;;;21.80;46.10;;;;;;5094871;28;20028;-76
2022/07/11 12:58:02;;;;;;;1.85;0.77;;;21.80;45.80;;;;;;5093509;28;20257;-74
2022/07/11 13:00:30;;;;;;;0.70;0.70;;;21.90;46.10;;;;;;5094443;28;20024;-75
2022/07/11 13:02:55;;;;;;;1.52;0.75;;;22.00;46.40;;;;;;5094821;28;20168;-74